TJIG/SIG METAR and TAF weather

Enter ICAO airport designator
Station Type Date Time Source
TJIG METAR 2023/02/05 22:45 UTC NOAA

TJIG 052245Z COR 13007KT 8SM SCT035 BKN070 26/21 A3011


Station Type Date Time Source
TJIG Decoded METAR 2023/02/05 22:45 UTC NOAA

Station name not available
Feb 05, 2023 - 05:45 PM EST / 2023.02.05 2245 UTC
Wind: from the SE (130 degrees) at 8 MPH (7 KT):0
Visibility: 8 mile(s):0
Sky conditions: mostly cloudy
Temperature: 78 F (26 C)
Dew Point: 69 F (21 C)
Relative Humidity: 73%
Pressure (altimeter): 30.11 in. Hg (1019 hPa)
ob: TJIG 052245Z COR 13007KT 8SM SCT035 BKN070 26/21 A3011
cycle: 23

Station Type Date Time Source
TJIG TAF UTC NOAA

Error!

Example: see airport list